Accueil
METAR-TAF:

METAR-TAF

Aéroports :

Aéroport international de Fredericton

Fredericton, Nouveau-Brunswick, Canada

latitude: 45-52N, longitude: 066-32W, altitude: 17 m

Observation

Le bulletin a été fait il y a 41 minutes, à 01:00 UTC
Vent 5 kt de ouest
Température 12°C
Humidité 38%
Pression 1007 hPa
Visibilité: 14.5 km
Ciel clair

METAR: CYFC 030100Z AUTO 27005KT 9SM CLR 12/M02 A2973 RMK SLP070

Heure: 22:41 (01:41 UTC)

Prévision

Le bulletin a été fait il y a 2 heures et 0 minutes, à 23:41 UTC
Prévision valable du 03 à 00 UTC au 03 à 12 UTC
Vent 12 kt de ouest/nord-ouest
Visibilité: 10 km
Quelques nuages à une hauteur de 6000 ft
Quelques nuages à une hauteur de 23000 ft

TAF: CYFC 022341Z 0300/0312 29012KT P6SM FEW060 FEW230 RMK FCST BASED ON AUTO OBS. NXT FCST BY 030600Z

Observations et prévisions météorologiques de plus de 4000 aéroports (messages METAR et TAF).

Les stations disponibles sont représentées par des disques jaunes et rouges sur la carte.

Passer la souris dessus pour voir le nom de la station.

Cliquer dessus pour voir les observations et prévisions météorologiques.

Pour changer de carte: cliquez sur les boutons verts avec une croix noire pour zoomer, sur le bouton vert avec un tiret pour effectuer un zoom arrière, ou sur les flèches vertes pour les cartes adjacentes.


METAR-TAF: